Time;durP1;ratioP1;P1;durP2;ratioP2;P2;SDS_P1;SDS_P2;PMS_P1;PMS_P2;Temp;Humidity;BMP_temperature;BMP_pressure;BME280_temperature;BME280_humidity;BME280_pressure;Samples;Min_cycle;Max_cycle;Signal;HPM_P1;HPM_P2
2021/03/31 00:01:29;;;;;;;9.97;6.20;;;;;;;;;;5080959;28;20198;-81
2021/03/31 00:03:55;;;;;;;9.50;6.40;;;;;;;;;;5082173;28;20185;-81
2021/03/31 00:06:20;;;;;;;11.17;6.70;;;;;;;;;;5089181;28;20192;-81
2021/03/31 00:08:47;;;;;;;12.43;6.30;;;;;;;;;;5091208;28;20261;-82
2021/03/31 00:11:13;;;;;;;9.87;6.23;;;;;;;;;;5092679;28;20200;-83
2021/03/31 00:13:38;;;;;;;10.13;6.50;;;;;;;;;;5086828;28;20192;-81
2021/03/31 00:16:04;;;;;;;9.10;6.33;;;;;;;;;;5090621;28;20702;-83
2021/03/31 00:18:30;;;;;;;15.80;7.10;;;;;;;;;;5098533;28;20197;-83
2021/03/31 00:20:55;;;;;;;10.40;6.30;;;;;;;;;;5091446;28;20196;-81
2021/03/31 00:23:22;;;;;;;11.20;5.97;;;;;;;;;;5090559;28;20196;-81
2021/03/31 00:25:49;;;;;;;12.33;7.00;;;;;;;;;;5089426;28;20189;-81
2021/03/31 00:28:14;;;;;;;11.83;7.13;;;;;;;;;;5077371;28;20208;-82
2021/03/31 00:30:42;;;;;;;10.30;7.00;;;;;;;;;;5088506;28;20192;-82
2021/03/31 00:33:08;;;;;;;9.63;5.60;;;;;;;;;;5090952;28;20189;-82
2021/03/31 00:35:34;;;;;;;10.53;6.30;;;;;;;;;;5085162;28;20620;-82
2021/03/31 00:38:00;;;;;;;8.97;5.93;;;;;;;;;;5091366;28;20213;-82
2021/03/31 00:40:27;;;;;;;11.07;6.67;;;;;;;;;;5083429;28;20193;-82
2021/03/31 00:42:52;;;;;;;12.23;6.50;;;;;;;;;;5086298;28;20185;-83
2021/03/31 00:45:18;;;;;;;11.50;6.80;;;;;;;;;;5085006;28;20600;-81
2021/03/31 00:47:43;;;;;;;10.67;7.03;;;;;;;;;;5088399;28;20757;-82
2021/03/31 00:50:13;;;;;;;13.30;7.67;;;;;;;;;;5089541;28;20745;-81
2021/03/31 00:52:40;;;;;;;14.00;8.50;;;;;;;;;;5081902;28;20200;-80
2021/03/31 00:55:07;;;;;;;12.97;7.70;;;;;;;;;;5067915;28;20276;-82
2021/03/31 00:57:33;;;;;;;10.90;6.60;;;;;;;;;;5084810;28;20203;-84
2021/03/31 00:59:58;;;;;;;26.80;8.40;;;;;;;;;;5091265;28;20201;-82
2021/03/31 01:02:24;;;;;;;13.57;6.70;;;;;;;;;;5082208;28;20754;-82
2021/03/31 01:04:49;;;;;;;13.30;7.07;;;;;;;;;;5085099;28;20200;-82
2021/03/31 01:07:14;;;;;;;12.87;6.93;;;;;;;;;;5084781;28;20621;-82
2021/03/31 01:09:40;;;;;;;12.20;8.03;;;;;;;;;;5082621;28;20232;-81
2021/03/31 01:12:19;;;;;;;10.00;6.97;;;;;;;;;;5085901;28;20176;-81
2021/03/31 01:15:05;;;;;;;11.07;6.90;;;;;;;;;;5089839;28;20206;-82
2021/03/31 01:17:47;;;;;;;11.00;7.17;;;;;;;;;;5089188;28;20243;-82
2021/03/31 01:20:44;;;;;;;9.90;7.10;;;;;;;;;;5083843;28;20201;-82
2021/03/31 01:23:37;;;;;;;9.73;7.17;;;;;;;;;;5073012;28;20221;-82
2021/03/31 01:26:25;;;;;;;9.53;6.43;;;;;;;;;;5071837;28;20220;-82
2021/03/31 01:29:10;;;;;;;13.77;6.80;;;;;;;;;;5089540;28;20209;-82
2021/03/31 01:31:41;;;;;;;12.97;7.37;;;;;;;;;;5083816;28;20192;-82
2021/03/31 01:34:44;;;;;;;12.23;7.03;;;;;;;;;;5085002;28;20193;-81
2021/03/31 01:37:20;;;;;;;13.73;8.03;;;;;;;;;;5085429;28;20288;-82
2021/03/31 01:39:47;;;;;;;13.93;7.57;;;;;;;;;;5081212;28;20204;-81
2021/03/31 01:42:13;;;;;;;10.53;7.43;;;;;;;;;;5089910;28;20304;-82
2021/03/31 01:44:42;;;;;;;11.37;7.33;;;;;;;;;;5087734;28;20188;-82
2021/03/31 01:47:09;;;;;;;10.00;7.10;;;;;;;;;;5085960;28;20200;-83
2021/03/31 01:49:35;;;;;;;12.60;7.83;;;;;;;;;;5084686;28;20212;-83
2021/03/31 01:52:03;;;;;;;10.23;6.57;;;;;;;;;;5085444;28;20195;-83
2021/03/31 01:54:30;;;;;;;12.50;7.90;;;;;;;;;;5091649;28;20192;-82
2021/03/31 01:56:57;;;;;;;10.60;6.60;;;;;;;;;;5089244;28;20200;-81
2021/03/31 01:59:24;;;;;;;15.60;8.30;;;;;;;;;;5088021;28;20276;-83
2021/03/31 02:01:51;;;;;;;9.87;7.13;;;;;;;;;;5086445;28;20188;-81
2021/03/31 02:04:17;;;;;;;10.93;6.43;;;;;;;;;;5068981;28;20228;-83
2021/03/31 02:06:43;;;;;;;10.30;6.50;;;;;;;;;;5088467;28;20215;-82
2021/03/31 02:09:10;;;;;;;10.17;6.80;;;;;;;;;;5085765;28;20215;-82
2021/03/31 02:11:38;;;;;;;11.23;6.77;;;;;;;;;;5077540;28;20621;-82
2021/03/31 02:14:05;;;;;;;10.63;6.70;;;;;;;;;;5084790;28;20304;-82
2021/03/31 02:16:32;;;;;;;10.93;7.00;;;;;;;;;;5088541;28;20238;-82
2021/03/31 02:18:59;;;;;;;10.33;6.83;;;;;;;;;;5087128;28;20676;-82
2021/03/31 02:21:24;;;;;;;12.43;6.60;;;;;;;;;;5078324;28;20220;-81
2021/03/31 02:23:50;;;;;;;11.40;6.97;;;;;;;;;;5082869;28;20273;-82
2021/03/31 02:26:17;;;;;;;12.80;7.63;;;;;;;;;;5086501;28;20313;-82
2021/03/31 02:28:43;;;;;;;13.73;7.47;;;;;;;;;;5086001;28;20208;-82
2021/03/31 02:31:08;;;;;;;9.80;6.80;;;;;;;;;;5074176;28;20206;-82
2021/03/31 02:33:34;;;;;;;13.00;7.23;;;;;;;;;;5085613;28;20673;-81
2021/03/31 02:36:00;;;;;;;10.67;6.80;;;;;;;;;;5084200;28;20231;-81
2021/03/31 02:38:28;;;;;;;11.73;6.70;;;;;;;;;;5066180;28;20679;-81
2021/03/31 02:40:55;;;;;;;14.13;6.77;;;;;;;;;;5087355;28;20608;-82
2021/03/31 02:43:23;;;;;;;11.50;6.90;;;;;;;;;;5088357;28;20693;-81
2021/03/31 02:45:52;;;;;;;10.77;6.73;;;;;;;;;;5073123;28;20705;-82
2021/03/31 02:48:18;;;;;;;16.83;8.67;;;;;;;;;;5080095;28;20239;-82
2021/03/31 02:50:46;;;;;;;12.80;7.87;;;;;;;;;;5088635;28;20195;-81
2021/03/31 02:53:14;;;;;;;14.27;8.10;;;;;;;;;;5080932;28;20185;-83
2021/03/31 02:55:39;;;;;;;11.70;7.13;;;;;;;;;;5092585;28;20263;-82
2021/03/31 02:58:08;;;;;;;13.40;7.73;;;;;;;;;;5088008;28;20589;-82
2021/03/31 03:00:34;;;;;;;10.37;7.13;;;;;;;;;;5083185;28;20204;-83
2021/03/31 03:03:01;;;;;;;15.63;6.97;;;;;;;;;;5086603;28;20299;-82
2021/03/31 03:05:27;;;;;;;9.60;6.47;;;;;;;;;;5079112;28;20185;-80
2021/03/31 03:07:52;;;;;;;15.37;7.47;;;;;;;;;;5087611;28;20231;-81
2021/03/31 03:10:18;;;;;;;13.60;6.80;;;;;;;;;;5069736;28;20589;-79
2021/03/31 03:12:53;;;;;;;11.97;7.40;;;;;;;;;;5085744;28;20196;-81
2021/03/31 03:15:19;;;;;;;14.53;7.23;;;;;;;;;;5079020;28;20226;-81
2021/03/31 03:17:46;;;;;;;9.60;6.83;;;;;;;;;;5095148;28;20196;-80
2021/03/31 03:20:12;;;;;;;8.17;6.17;;;;;;;;;;5084820;28;20195;-82
2021/03/31 03:22:40;;;;;;;12.43;6.77;;;;;;;;;;5090577;28;20203;-82
2021/03/31 03:25:10;;;;;;;11.10;6.70;;;;;;;;;;5088658;28;20189;-84
2021/03/31 03:27:40;;;;;;;11.77;6.77;;;;;;;;;;5092165;28;20177;-80
2021/03/31 03:30:09;;;;;;;10.40;7.00;;;;;;;;;;5072955;28;20241;-82
2021/03/31 03:32:34;;;;;;;11.27;7.60;;;;;;;;;;5089328;28;20535;-81
2021/03/31 03:35:00;;;;;;;13.00;7.47;;;;;;;;;;5090409;28;20341;-81
2021/03/31 03:37:26;;;;;;;8.63;6.67;;;;;;;;;;5089513;28;20177;-82
2021/03/31 03:39:51;;;;;;;13.83;7.10;;;;;;;;;;5091470;28;20191;-81
2021/03/31 03:42:16;;;;;;;11.13;7.23;;;;;;;;;;5070781;28;20216;-82
2021/03/31 03:44:42;;;;;;;10.67;6.47;;;;;;;;;;5085186;28;20193;-82
2021/03/31 03:47:08;;;;;;;12.73;7.13;;;;;;;;;;5090478;28;20182;-82
2021/03/31 03:49:38;;;;;;;9.53;6.70;;;;;;;;;;5105967;28;20256;-82
2021/03/31 03:52:06;;;;;;;13.33;7.33;;;;;;;;;;5091835;28;20193;-82
2021/03/31 03:54:32;;;;;;;11.47;6.60;;;;;;;;;;5090602;28;20665;-81
2021/03/31 03:57:00;;;;;;;12.33;7.33;;;;;;;;;;5083722;28;20208;-82
2021/03/31 03:59:29;;;;;;;17.17;6.83;;;;;;;;;;5094969;28;20291;-82
2021/03/31 04:01:55;;;;;;;12.53;6.50;;;;;;;;;;5088586;28;20189;-81
2021/03/31 04:04:21;;;;;;;11.40;6.87;;;;;;;;;;5088217;28;20200;-82
2021/03/31 04:06:47;;;;;;;11.33;6.77;;;;;;;;;;5085913;28;20200;-81
2021/03/31 04:09:15;;;;;;;9.50;6.73;;;;;;;;;;5088595;28;20283;-82
2021/03/31 04:11:43;;;;;;;10.37;6.20;;;;;;;;;;5092296;28;20214;-82
2021/03/31 04:14:09;;;;;;;9.30;6.10;;;;;;;;;;5087755;28;20193;-81
2021/03/31 04:16:38;;;;;;;9.37;6.63;;;;;;;;;;5073133;28;20308;-81
2021/03/31 04:19:07;;;;;;;8.17;5.60;;;;;;;;;;5091375;28;20213;-81
2021/03/31 04:21:34;;;;;;;12.10;6.67;;;;;;;;;;5092849;28;20215;-82
2021/03/31 04:24:02;;;;;;;11.57;6.90;;;;;;;;;;5090789;28;20207;-81
2021/03/31 04:26:30;;;;;;;9.20;6.43;;;;;;;;;;5073489;28;20287;-82
2021/03/31 04:28:56;;;;;;;8.67;6.33;;;;;;;;;;5085064;28;20197;-82
2021/03/31 04:31:23;;;;;;;10.43;6.23;;;;;;;;;;5090610;28;20203;-81
2021/03/31 04:33:50;;;;;;;10.87;6.37;;;;;;;;;;5091099;28;20199;-81
2021/03/31 04:36:16;;;;;;;10.00;6.50;;;;;;;;;;5087085;28;20292;-81
2021/03/31 04:38:46;;;;;;;12.57;7.30;;;;;;;;;;5090846;28;20246;-81
2021/03/31 04:41:12;;;;;;;22.27;7.10;;;;;;;;;;5087849;28;20193;-81
2021/03/31 04:43:37;;;;;;;12.50;7.33;;;;;;;;;;5090637;28;20193;-81
2021/03/31 04:46:04;;;;;;;11.73;7.67;;;;;;;;;;5091389;28;20180;-84
2021/03/31 04:48:30;;;;;;;11.27;7.57;;;;;;;;;;5083239;28;20586;-81
2021/03/31 04:50:56;;;;;;;11.17;7.30;;;;;;;;;;5081318;28;20189;-81
2021/03/31 04:53:21;;;;;;;18.80;7.83;;;;;;;;;;5083141;28;20192;-82
2021/03/31 04:55:48;;;;;;;12.80;7.70;;;;;;;;;;5084460;28;20211;-81
2021/03/31 04:58:13;;;;;;;12.30;7.90;;;;;;;;;;5076610;28;20208;-82
2021/03/31 05:00:38;;;;;;;11.57;7.43;;;;;;;;;;5085857;28;20743;-81
2021/03/31 05:03:05;;;;;;;14.47;7.37;;;;;;;;;;5088928;28;20279;-81
2021/03/31 05:05:30;;;;;;;12.67;6.97;;;;;;;;;;5082895;28;20271;-83
2021/03/31 05:07:56;;;;;;;10.67;7.20;;;;;;;;;;5082061;28;20292;-84
2021/03/31 05:10:21;;;;;;;13.53;7.97;;;;;;;;;;5070942;28;20188;-81
2021/03/31 05:12:46;;;;;;;15.83;7.90;;;;;;;;;;5086058;28;20204;-81
2021/03/31 05:15:12;;;;;;;11.47;7.07;;;;;;;;;;5085962;28;20235;-82
2021/03/31 05:17:37;;;;;;;10.83;7.33;;;;;;;;;;5092260;28;20746;-81
2021/03/31 05:20:03;;;;;;;10.53;7.37;;;;;;;;;;5073750;28;20264;-84
2021/03/31 05:22:28;;;;;;;13.73;7.80;;;;;;;;;;5091352;28;20271;-82
2021/03/31 05:24:54;;;;;;;11.53;8.00;;;;;;;;;;5090329;28;20278;-84
2021/03/31 05:27:20;;;;;;;10.60;7.17;;;;;;;;;;5087209;28;20188;-84
2021/03/31 05:29:45;;;;;;;11.90;7.30;;;;;;;;;;5088603;28;20229;-82
2021/03/31 05:32:10;;;;;;;16.43;7.57;;;;;;;;;;5071359;28;20188;-84
2021/03/31 05:34:35;;;;;;;12.93;7.03;;;;;;;;;;5086034;28;20287;-85
2021/03/31 05:37:01;;;;;;;10.60;6.87;;;;;;;;;;5090925;28;20188;-83
2021/03/31 05:39:26;;;;;;;9.07;6.70;;;;;;;;;;5084486;28;20235;-83
2021/03/31 05:41:52;;;;;;;14.23;7.07;;;;;;;;;;5086004;28;20580;-84
2021/03/31 05:44:19;;;;;;;10.73;6.90;;;;;;;;;;5094026;28;20180;-83
2021/03/31 05:46:45;;;;;;;10.47;6.97;;;;;;;;;;5086733;28;20189;-84
2021/03/31 05:49:11;;;;;;;12.20;7.77;;;;;;;;;;5081859;28;20321;-83
2021/03/31 05:51:37;;;;;;;15.37;7.57;;;;;;;;;;5083493;28;20201;-83
2021/03/31 05:54:02;;;;;;;15.53;8.70;;;;;;;;;;5093218;28;20253;-82
2021/03/31 05:56:31;;;;;;;16.77;9.37;;;;;;;;;;5086143;28;20284;-81
2021/03/31 05:58:57;;;;;;;12.73;8.37;;;;;;;;;;5083185;28;20213;-82
2021/03/31 06:01:23;;;;;;;15.00;9.17;;;;;;;;;;5070116;28;20228;-85
2021/03/31 06:03:51;;;;;;;15.07;8.50;;;;;;;;;;5074386;28;20223;-83
2021/03/31 06:06:16;;;;;;;14.37;7.33;;;;;;;;;;5086149;28;20199;-82
2021/03/31 06:08:41;;;;;;;13.30;8.23;;;;;;;;;;5082630;28;20700;-83
2021/03/31 06:11:07;;;;;;;12.97;8.50;;;;;;;;;;5089767;28;20261;-83
2021/03/31 06:13:53;;;;;;;13.97;8.20;;;;;;;;;;5088980;28;20201;-80
2021/03/31 06:16:32;;;;;;;11.93;7.27;;;;;;;;;;5066841;28;20568;-82
2021/03/31 06:19:17;;;;;;;11.77;8.27;;;;;;;;;;5086998;28;20246;-85
2021/03/31 06:21:56;;;;;;;15.17;7.83;;;;;;;;;;5088821;28;20918;-85
2021/03/31 06:24:24;;;;;;;12.13;8.13;;;;;;;;;;5083766;28;20232;-86
2021/03/31 06:26:49;;;;;;;12.80;8.10;;;;;;;;;;5078924;28;20180;-85
2021/03/31 06:29:15;;;;;;;16.58;9.30;;;;;;;;;;5085544;28;20722;-85
2021/03/31 06:31:43;;;;;;;13.10;8.68;;;;;;;;;;5087024;28;20177;-85
2021/03/31 06:34:09;;;;;;;10.82;8.75;;;;;;;;;;5087733;28;20199;-85
2021/03/31 06:36:43;;;;;;;16.48;9.25;;;;;;;;;;5084727;28;20254;-86
2021/03/31 06:39:20;;;;;;;11.05;8.80;;;;;;;;;;5080987;28;20220;-86
2021/03/31 06:41:54;;;;;;;15.07;10.15;;;;;;;;;;5084048;28;20185;-86
2021/03/31 06:44:42;;;;;;;16.48;11.07;;;;;;;;;;5089295;28;20272;-86
2021/03/31 06:49:52;;;;;;;18.73;10.75;;;;;;;;;;5082302;28;20667;-84
2021/03/31 06:52:17;;;;;;;15.77;10.75;;;;;;;;;;5086373;28;20189;-83
2021/03/31 06:54:47;;;;;;;16.42;11.45;;;;;;;;;;5082198;28;20184;-83
2021/03/31 06:57:15;;;;;;;12.75;10.82;;;;;;;;;;5084626;28;20261;-84
2021/03/31 06:59:42;;;;;;;13.98;11.68;;;;;;;;;;5085326;28;20212;-85
2021/03/31 07:02:07;;;;;;;13.70;12.13;;;;;;;;;;5074810;28;20194;-84
2021/03/31 07:04:34;;;;;;;16.05;11.75;;;;;;;;;;5091778;28;20184;-86
2021/03/31 07:07:06;;;;;;;14.10;11.88;;;;;;;;;;5092480;28;20208;-84
2021/03/31 07:09:31;;;;;;;13.88;12.38;;;;;;;;;;5084972;28;20258;-84
2021/03/31 07:11:56;;;;;;;13.93;12.57;;;;;;;;;;5079062;28;20188;-83
2021/03/31 07:14:22;;;;;;;14.40;12.95;;;;;;;;;;5091011;28;20195;-83
2021/03/31 07:16:50;;;;;;;14.73;12.90;;;;;;;;;;5089757;28;20863;-85
2021/03/31 07:19:17;;;;;;;14.15;12.68;;;;;;;;;;5103787;28;20216;-84
2021/03/31 07:21:42;;;;;;;14.35;12.57;;;;;;;;;;5091605;28;20649;-84
2021/03/31 07:24:11;;;;;;;13.73;12.27;;;;;;;;;;5093318;28;20188;-84
2021/03/31 07:26:39;;;;;;;14.70;12.65;;;;;;;;;;5094011;28;20216;-82
2021/03/31 07:29:05;;;;;;;13.93;12.48;;;;;;;;;;5087209;28;20235;-83
2021/03/31 07:31:32;;;;;;;15.38;12.23;;;;;;;;;;5098501;28;20178;-84
2021/03/31 07:34:09;;;;;;;14.55;12.65;;;;;;;;;;5096517;28;20185;-83
2021/03/31 07:36:35;;;;;;;15.55;13.88;;;;;;;;;;5089387;28;20696;-84
2021/03/31 07:39:06;;;;;;;15.43;12.82;;;;;;;;;;5078062;28;20237;-84
2021/03/31 07:41:35;;;;;;;16.00;12.65;;;;;;;;;;5090053;28;20185;-83
2021/03/31 07:44:02;;;;;;;15.45;13.27;;;;;;;;;;5097056;28;20188;-82
2021/03/31 07:46:35;;;;;;;14.27;12.82;;;;;;;;;;5094976;28;20703;-82
2021/03/31 07:49:01;;;;;;;20.50;13.57;;;;;;;;;;5092038;28;20696;-82
2021/03/31 07:51:29;;;;;;;18.85;14.45;;;;;;;;;;5091696;28;20530;-81
2021/03/31 07:53:56;;;;;;;14.90;13.27;;;;;;;;;;5091049;28;20185;-81
2021/03/31 07:56:27;;;;;;;18.40;13.27;;;;;;;;;;5090489;28;20184;-83
2021/03/31 07:59:01;;;;;;;19.65;13.88;;;;;;;;;;5092994;28;20578;-87
2021/03/31 08:01:59;;;;;;;19.48;13.23;;;;;;;;;;5094566;28;20584;-85
2021/03/31 08:04:26;;;;;;;16.55;12.70;;;;;;;;;;5075543;28;20863;-81
2021/03/31 08:06:56;;;;;;;19.67;12.40;;;;;;;;;;5088088;28;20576;-79
2021/03/31 08:09:30;;;;;;;23.50;12.77;;;;;;;;;;5087200;28;20237;-80
2021/03/31 08:12:07;;;;;;;16.67;12.00;;;;;;;;;;5091851;28;20387;-79
2021/03/31 08:14:35;;;;;;;17.33;12.05;;;;;;;;;;5083449;28;20176;-82
2021/03/31 08:17:06;;;;;;;17.85;12.13;;;;;;;;;;5084457;28;20196;-81
2021/03/31 08:19:35;;;;;;;15.18;11.50;;;;;;;;;;5083480;28;20598;-81
2021/03/31 08:22:19;;;;;;;18.25;11.25;;;;;;;;;;5085966;28;20668;-81
2021/03/31 08:24:48;;;;;;;16.98;11.98;;;;;;;;;;5086529;28;20185;-83
2021/03/31 08:27:14;;;;;;;15.85;11.15;;;;;;;;;;5089034;28;20801;-81
2021/03/31 08:29:42;;;;;;;19.80;11.13;;;;;;;;;;5087358;28;20280;-83
2021/03/31 08:32:09;;;;;;;18.90;11.63;;;;;;;;;;5094249;28;20197;-83
2021/03/31 08:34:35;;;;;;;20.85;11.73;;;;;;;;;;5100639;28;20191;-85
2021/03/31 08:37:04;;;;;;;18.85;10.65;;;;;;;;;;5092839;28;20292;-85
2021/03/31 08:39:30;;;;;;;18.38;11.85;;;;;;;;;;5092567;28;20258;-83
2021/03/31 08:41:57;;;;;;;16.15;11.73;;;;;;;;;;5088474;28;20181;-83
2021/03/31 08:44:36;;;;;;;14.63;10.70;;;;;;;;;;5088707;28;20206;-83
2021/03/31 08:47:16;;;;;;;18.85;11.20;;;;;;;;;;5091327;28;20188;-83
2021/03/31 08:49:43;;;;;;;17.10;10.93;;;;;;;;;;5074063;28;20672;-85
2021/03/31 08:52:11;;;;;;;19.58;11.48;;;;;;;;;;5084335;28;20189;-82
2021/03/31 08:54:38;;;;;;;20.77;11.43;;;;;;;;;;5083955;28;20197;-82
2021/03/31 08:57:10;;;;;;;17.95;11.60;;;;;;;;;;5071644;28;20294;-81
2021/03/31 08:59:38;;;;;;;15.93;11.38;;;;;;;;;;5089485;28;20204;-82
2021/03/31 09:02:04;;;;;;;17.92;12.07;;;;;;;;;;5077444;28;20199;-84
2021/03/31 09:04:31;;;;;;;17.83;10.55;;;;;;;;;;5098598;28;20180;-84
2021/03/31 09:06:58;;;;;;;19.13;11.82;;;;;;;;;;5094376;28;20208;-84
2021/03/31 09:09:24;;;;;;;17.33;10.50;;;;;;;;;;5087939;28;20209;-83
2021/03/31 09:12:07;;;;;;;13.82;9.75;;;;;;;;;;5085148;28;20180;-83
2021/03/31 09:14:34;;;;;;;13.73;9.02;;;;;;;;;;5090630;28;20199;-82
2021/03/31 09:17:11;;;;;;;12.68;7.60;;;;;;;;;;5076841;28;20172;-83
2021/03/31 09:19:42;;;;;;;14.07;8.93;;;;;;;;;;5082286;28;20700;-83
2021/03/31 09:22:10;;;;;;;16.15;10.25;;;;;;;;;;5089086;28;20209;-83
2021/03/31 09:25:08;;;;;;;14.27;9.15;;;;;;;;;;5089977;28;20787;-82
2021/03/31 09:27:35;;;;;;;15.80;10.45;;;;;;;;;;5086911;28;20215;-82
2021/03/31 09:30:05;;;;;;;15.80;10.57;;;;;;;;;;5085614;28;20192;-82
2021/03/31 09:32:38;;;;;;;12.15;9.60;;;;;;;;;;5091250;28;20653;-82
2021/03/31 09:35:08;;;;;;;17.00;10.77;;;;;;;;;;5092334;28;20187;-83
2021/03/31 09:37:49;;;;;;;15.02;9.32;;;;;;;;;;5086609;28;20181;-82
2021/03/31 09:40:26;;;;;;;24.00;11.63;;;;;;;;;;5089583;28;20188;-83
2021/03/31 09:42:59;;;;;;;14.25;9.15;;;;;;;;;;5071727;28;20221;-83
2021/03/31 09:45:31;;;;;;;11.15;8.13;;;;;;;;;;5087396;28;20211;-83
2021/03/31 09:47:57;;;;;;;13.10;8.90;;;;;;;;;;5088906;28;20232;-82
2021/03/31 09:50:25;;;;;;;11.18;8.15;;;;;;;;;;5086814;28;20520;-83
2021/03/31 09:52:54;;;;;;;13.57;8.50;;;;;;;;;;5072449;28;20276;-83
2021/03/31 09:55:23;;;;;;;11.90;8.02;;;;;;;;;;5087812;28;20185;-83
2021/03/31 09:57:51;;;;;;;13.07;7.85;;;;;;;;;;5087097;28;20201;-82
2021/03/31 10:00:18;;;;;;;11.57;7.90;;;;;;;;;;5086617;28;20225;-83
2021/03/31 10:02:44;;;;;;;11.77;8.23;;;;;;;;;;5070531;28;20185;-83
2021/03/31 10:05:16;;;;;;;13.10;8.48;;;;;;;;;;5077798;28;20220;-82
2021/03/31 10:07:42;;;;;;;12.95;8.85;;;;;;;;;;5086682;28;20220;-81
2021/03/31 10:10:09;;;;;;;15.07;8.75;;;;;;;;;;5083947;28;20196;-83
2021/03/31 10:12:35;;;;;;;13.75;8.07;;;;;;;;;;5080141;28;20189;-83
2021/03/31 10:15:04;;;;;;;11.05;7.80;;;;;;;;;;5071395;28;20184;-82
2021/03/31 10:17:31;;;;;;;12.20;7.93;;;;;;;;;;5082693;28;20215;-82
2021/03/31 10:20:09;;;;;;;15.23;8.50;;;;;;;;;;5085558;28;20187;-83
2021/03/31 10:22:34;;;;;;;8.50;7.07;;;;;;;;;;5088120;28;20180;-81
2021/03/31 10:25:00;;;;;;;11.82;8.43;;;;;;;;;;5089539;28;20220;-83
2021/03/31 10:27:40;;;;;;;10.07;7.93;;;;;;;;;;5090505;27;20640;-84
2021/03/31 10:30:06;;;;;;;10.30;8.23;;;;;;;;;;5109718;28;20272;-82
2021/03/31 10:32:31;;;;;;;11.95;9.07;;;;;;;;;;5078279;28;20271;-83
2021/03/31 10:34:57;;;;;;;11.55;8.70;;;;;;;;;;5095531;28;20181;-81
2021/03/31 10:37:30;;;;;;;13.25;9.68;;;;;;;;;;5093175;28;20185;-82
2021/03/31 10:48:54;;;;;;;10.52;7.10;;;;;;;;;;5097929;28;20662;-84
2021/03/31 10:51:32;;;;;;;8.57;7.22;;;;;;;;;;5078242;28;20195;-82
2021/03/31 10:54:05;;;;;;;12.90;7.43;;;;;;;;;;5093419;28;20298;-83
2021/03/31 10:56:32;;;;;;;13.60;7.70;;;;;;;;;;5090769;28;20280;-84
2021/03/31 10:58:57;;;;;;;9.55;6.68;;;;;;;;;;5096508;28;21361;-82
2021/03/31 11:01:23;;;;;;;9.98;6.78;;;;;;;;;;5079628;28;20661;-83
2021/03/31 11:03:48;;;;;;;9.13;6.70;;;;;;;;;;5094860;28;20676;-83
2021/03/31 11:06:13;;;;;;;11.57;7.28;;;;;;;;;;5090918;28;20205;-83
2021/03/31 11:08:38;;;;;;;11.40;7.68;;;;;;;;;;5089388;28;20209;-83
2021/03/31 11:11:05;;;;;;;11.65;7.57;;;;;;;;;;5087297;28;20296;-84
2021/03/31 11:13:31;;;;;;;9.07;6.22;;;;;;;;;;5094089;28;20219;-83
2021/03/31 11:16:02;;;;;;;10.77;7.20;;;;;;;;;;5094599;28;20181;-80
2021/03/31 11:26:39;;;;;;;12.55;3.83;;;;;;;;;;5086882;28;20269;-80
2021/03/31 11:29:04;;;;;;;6.45;4.07;;;;;;;;;;5082890;28;20679;-82
2021/03/31 11:31:29;;;;;;;21.50;4.10;;;;;;;;;;5092594;28;20192;-80
2021/03/31 11:33:55;;;;;;;19.73;5.18;;;;;;;;;;5089771;28;20258;-80
2021/03/31 11:36:20;;;;;;;6.38;5.10;;;;;;;;;;5093913;28;20184;-81
2021/03/31 11:38:45;;;;;;;6.95;4.30;;;;;;;;;;5094378;28;20204;-80
2021/03/31 11:41:11;;;;;;;7.53;4.00;;;;;;;;;;5091930;28;20624;-80
2021/03/31 11:43:36;;;;;;;9.27;3.97;;;;;;;;;;5093111;28;20660;-81
2021/03/31 11:46:02;;;;;;;12.25;4.82;;;;;;;;;;5088037;28;20212;-82
2021/03/31 11:48:28;;;;;;;6.30;4.25;;;;;;;;;;5097754;28;20208;-81
2021/03/31 11:50:53;;;;;;;7.13;4.47;;;;;;;;;;5091515;28;20214;-80
2021/03/31 11:53:18;;;;;;;7.20;3.80;;;;;;;;;;5083074;28;20193;-81
2021/03/31 11:55:43;;;;;;;6.70;4.00;;;;;;;;;;5086819;28;20185;-79
2021/03/31 11:58:09;;;;;;;7.60;4.15;;;;;;;;;;5091130;28;20205;-80
2021/03/31 12:00:36;;;;;;;8.60;4.30;;;;;;;;;;5093830;28;20716;-82
2021/03/31 12:03:05;;;;;;;7.13;4.03;;;;;;;;;;5092622;28;20374;-81
2021/03/31 12:05:31;;;;;;;7.25;4.18;;;;;;;;;;5093887;28;20244;-80
2021/03/31 12:07:56;;;;;;;9.80;5.80;;;;;;;;;;5090689;28;20219;-79
2021/03/31 12:10:22;;;;;;;8.40;4.68;;;;;;;;;;5088605;28;20196;-79
2021/03/31 12:12:47;;;;;;;8.00;4.53;;;;;;;;;;5086342;28;20188;-80
2021/03/31 12:15:16;;;;;;;6.90;4.57;;;;;;;;;;5085848;28;20195;-80
2021/03/31 12:17:42;;;;;;;9.90;4.65;;;;;;;;;;5092693;28;20274;-80
2021/03/31 12:20:13;;;;;;;6.72;4.97;;;;;;;;;;5090353;28;20189;-80
2021/03/31 12:22:40;;;;;;;6.07;4.60;;;;;;;;;;5097138;28;20585;-80
2021/03/31 12:25:06;;;;;;;10.05;5.47;;;;;;;;;;5088645;28;20318;-80
2021/03/31 12:27:34;;;;;;;8.45;4.85;;;;;;;;;;5089550;28;20309;-80
2021/03/31 12:30:05;;;;;;;5.05;4.32;;;;;;;;;;5094734;28;20181;-80
2021/03/31 12:32:31;;;;;;;8.93;3.97;;;;;;;;;;5096421;28;20193;-80
2021/03/31 12:34:56;;;;;;;9.80;4.60;;;;;;;;;;5085907;28;20188;-80
2021/03/31 12:37:23;;;;;;;7.25;4.80;;;;;;;;;;5092059;28;20593;-80
2021/03/31 12:39:48;;;;;;;9.77;5.63;;;;;;;;;;5091029;28;20181;-80
2021/03/31 12:42:14;;;;;;;9.25;4.80;;;;;;;;;;5083549;28;20189;-81
2021/03/31 12:44:39;;;;;;;7.93;4.75;;;;;;;;;;5090838;28;20299;-81
2021/03/31 12:47:04;;;;;;;7.05;5.55;;;;;;;;;;5075144;28;20213;-80
2021/03/31 12:49:30;;;;;;;10.43;5.53;;;;;;;;;;5091820;28;20201;-80
2021/03/31 12:52:05;;;;;;;9.05;5.88;;;;;;;;;;5093260;28;20180;-79
2021/03/31 12:54:35;;;;;;;10.38;6.10;;;;;;;;;;5091176;28;20254;-80
2021/03/31 12:57:02;;;;;;;7.55;5.43;;;;;;;;;;5095175;28;20559;-81
2021/03/31 12:59:28;;;;;;;7.15;5.10;;;;;;;;;;5101343;28;20210;-80
2021/03/31 13:01:53;;;;;;;9.77;5.78;;;;;;;;;;5080512;28;20276;-80
2021/03/31 13:04:19;;;;;;;9.20;5.15;;;;;;;;;;5092729;28;20196;-79
2021/03/31 13:06:45;;;;;;;8.02;6.00;;;;;;;;;;5091492;28;20215;-80
2021/03/31 13:09:10;;;;;;;7.03;5.43;;;;;;;;;;5093173;28;20196;-79
2021/03/31 13:11:36;;;;;;;9.20;5.32;;;;;;;;;;5085377;28;20184;-79
2021/03/31 13:16:41;;;;;;;8.77;6.35;;;;;;;;;;5089975;28;20192;-80
2021/03/31 13:28:25;;;;;;;10.25;6.50;;;;;;;;;;5050680;28;20232;-80
2021/03/31 13:30:43;;;;;;;8.85;6.05;;;;;;;;;;5048607;28;20189;-80
2021/03/31 13:33:13;;;;;;;9.32;5.72;;;;;;;;;;5048693;28;20188;-80
2021/03/31 13:35:52;;;;;;;8.07;5.50;;;;;;;;;;5088070;28;20204;-80
2021/03/31 13:38:30;;;;;;;8.25;5.65;;;;;;;;;;5089315;28;20281;-80
2021/03/31 13:40:55;;;;;;;7.03;5.28;;;;;;;;;;5088574;28;20195;-80
2021/03/31 13:43:20;;;;;;;6.65;5.20;;;;;;;;;;5087028;28;20275;-80
2021/03/31 13:45:46;;;;;;;9.85;5.18;;;;;;;;;;5065138;28;20265;-79
2021/03/31 13:48:22;;;;;;;8.15;5.93;;;;;;;;;;5088533;28;20243;-79
2021/03/31 13:50:47;;;;;;;5.55;4.00;;;;;;;;;;5088346;28;20192;-79
2021/03/31 13:53:19;;;;;;;6.53;4.40;;;;;;;;;;5087360;28;20183;-80
2021/03/31 13:55:45;;;;;;;5.70;3.67;;;;;;;;;;5081868;28;20176;-79
2021/03/31 13:58:11;;;;;;;5.63;3.70;;;;;;;;;;5080018;28;20238;-80
2021/03/31 14:00:36;;;;;;;7.03;3.72;;;;;;;;;;5096203;28;20193;-80
2021/03/31 14:03:02;;;;;;;5.03;3.60;;;;;;;;;;5085569;28;20197;-80
2021/03/31 14:05:27;;;;;;;10.45;4.38;;;;;;;;;;5090705;28;20303;-81
2021/03/31 14:07:53;;;;;;;104.40;13.35;;;;;;;;;;5087309;28;20209;-81
2021/03/31 14:10:20;;;;;;;56.67;10.40;;;;;;;;;;5086320;28;20212;-83
2021/03/31 14:12:48;;;;;;;16.52;5.60;;;;;;;;;;5088964;28;20249;-82
2021/03/31 14:15:15;;;;;;;7.53;5.50;;;;;;;;;;5088802;28;20203;-82
2021/03/31 14:17:41;;;;;;;9.43;5.97;;;;;;;;;;5087400;28;20201;-82
2021/03/31 14:20:09;;;;;;;6.63;5.38;;;;;;;;;;5093496;28;20199;-82
2021/03/31 14:22:35;;;;;;;9.88;5.28;;;;;;;;;;5098760;28;20207;-82
2021/03/31 14:25:02;;;;;;;9.13;4.72;;;;;;;;;;5086625;28;20184;-81
2021/03/31 14:27:28;;;;;;;8.57;5.10;;;;;;;;;;5088113;28;20199;-82
2021/03/31 14:29:53;;;;;;;15.15;4.90;;;;;;;;;;5092649;28;20186;-82
2021/03/31 14:32:21;;;;;;;9.57;5.03;;;;;;;;;;5094804;28;20189;-82
2021/03/31 14:34:47;;;;;;;8.55;4.97;;;;;;;;;;5084136;28;20181;-83
2021/03/31 14:37:13;;;;;;;7.28;5.70;;;;;;;;;;5088959;28;20203;-82
2021/03/31 14:39:39;;;;;;;8.27;4.80;;;;;;;;;;5088329;28;20210;-82
2021/03/31 14:42:05;;;;;;;6.65;5.00;;;;;;;;;;5089095;28;20203;-82
2021/03/31 14:44:31;;;;;;;29.23;5.97;;;;;;;;;;5082891;28;20193;-81
2021/03/31 14:46:56;;;;;;;7.70;4.25;;;;;;;;;;5086878;28;20208;-82
2021/03/31 14:49:24;;;;;;;14.10;5.68;;;;;;;;;;5093145;28;20846;-82
2021/03/31 14:57:40;;;;;;;14.30;6.70;;;;;;;;;;5088948;28;20202;-80
2021/03/31 15:00:05;;;;;;;10.50;6.70;;;;;;;;;;5087071;28;20193;-81
2021/03/31 15:02:31;;;;;;;7.93;6.13;;;;;;;;;;5087216;28;20326;-79
2021/03/31 15:04:56;;;;;;;10.20;6.25;;;;;;;;;;5083288;28;20642;-80
2021/03/31 15:07:21;;;;;;;8.18;5.72;;;;;;;;;;5074357;28;20200;-81
2021/03/31 15:09:46;;;;;;;8.35;5.65;;;;;;;;;;5084819;28;20185;-79
2021/03/31 15:12:13;;;;;;;9.05;6.07;;;;;;;;;;5084745;28;20338;-81
2021/03/31 15:14:38;;;;;;;11.50;6.55;;;;;;;;;;5092299;28;20189;-81